Time;durP1;ratioP1;P1;durP2;ratioP2;P2;SDS_P1;SDS_P2;PMS_P1;PMS_P2;Temp;Humidity;BMP_temperature;BMP_pressure;BME280_temperature;BME280_humidity;BME280_pressure;Samples;Min_cycle;Max_cycle;Signal;HPM_P1;HPM_P2
2021/10/04 00:01:49;;;;;;;2.53;1.50;;;;;;;;;;4981927;28;20297;-78
2021/10/04 00:04:16;;;;;;;1.90;0.90;;;;;;;;;;4986854;28;20723;-78
2021/10/04 00:06:43;;;;;;;2.23;1.20;;;;;;;;;;4981995;28;20280;-78
2021/10/04 00:09:10;;;;;;;1.30;0.90;;;;;;;;;;4987812;28;20236;-77
2021/10/04 00:11:38;;;;;;;3.80;1.03;;;;;;;;;;4983164;28;20694;-78
2021/10/04 00:14:06;;;;;;;1.70;0.70;;;;;;;;;;4984301;28;20304;-78
2021/10/04 00:16:33;;;;;;;2.50;0.90;;;;;;;;;;4983453;28;20697;-78
2021/10/04 00:19:01;;;;;;;3.67;0.77;;;;;;;;;;4981375;28;22172;-78
2021/10/04 00:21:28;;;;;;;4.57;0.80;;;;;;;;;;4986618;28;20288;-79
2021/10/04 00:23:55;;;;;;;1.50;0.90;;;;;;;;;;4982932;28;20241;-78
2021/10/04 00:26:22;;;;;;;2.33;0.93;;;;;;;;;;4984197;28;20280;-78
2021/10/04 00:28:50;;;;;;;5.13;0.90;;;;;;;;;;4982718;28;20225;-78
2021/10/04 00:31:18;;;;;;;1.47;0.90;;;;;;;;;;4979094;28;20312;-75
2021/10/04 00:33:45;;;;;;;2.10;0.80;;;;;;;;;;4982033;28;20221;-77
2021/10/04 00:36:13;;;;;;;1.07;0.70;;;;;;;;;;4978109;28;20237;-78
2021/10/04 00:38:40;;;;;;;1.30;0.63;;;;;;;;;;4982244;28;20209;-77
2021/10/04 00:41:07;;;;;;;1.00;0.80;;;;;;;;;;4980203;28;20264;-77
2021/10/04 00:43:34;;;;;;;1.13;0.77;;;;;;;;;;4986299;28;20280;-77
2021/10/04 00:46:01;;;;;;;2.67;0.60;;;;;;;;;;4980828;28;21649;-77
2021/10/04 00:48:30;;;;;;;2.93;0.83;;;;;;;;;;4985684;28;20198;-78
2021/10/04 00:50:57;;;;;;;1.10;0.70;;;;;;;;;;4992065;28;20224;-78
2021/10/04 00:53:24;;;;;;;1.97;0.70;;;;;;;;;;4988095;28;20255;-78
2021/10/04 00:55:52;;;;;;;2.90;0.70;;;;;;;;;;4989368;28;20208;-78
2021/10/04 00:58:19;;;;;;;1.40;0.77;;;;;;;;;;4989204;28;20240;-77
2021/10/04 01:00:46;;;;;;;1.77;0.90;;;;;;;;;;4988717;28;21132;-77
2021/10/04 01:03:15;;;;;;;1.70;0.60;;;;;;;;;;4984133;28;20256;-77
2021/10/04 01:05:44;;;;;;;2.10;0.90;;;;;;;;;;4989248;28;20881;-77
2021/10/04 01:08:11;;;;;;;7.40;0.73;;;;;;;;;;4990531;28;20596;-77
2021/10/04 01:10:38;;;;;;;1.73;0.63;;;;;;;;;;4990433;28;20650;-77
2021/10/04 01:13:06;;;;;;;1.70;0.80;;;;;;;;;;4994060;28;20201;-77
2021/10/04 01:15:33;;;;;;;1.30;0.80;;;;;;;;;;4989948;28;20197;-77
2021/10/04 01:18:01;;;;;;;2.30;0.83;;;;;;;;;;4992959;28;20233;-77
2021/10/04 01:20:29;;;;;;;7.20;1.00;;;;;;;;;;4990677;28;20264;-78
2021/10/04 01:22:57;;;;;;;2.17;0.80;;;;;;;;;;4990303;28;20204;-77
2021/10/04 01:25:25;;;;;;;3.67;0.87;;;;;;;;;;4991827;28;20271;-77
2021/10/04 01:27:52;;;;;;;0.80;0.70;;;;;;;;;;4986326;28;20229;-78
2021/10/04 01:30:20;;;;;;;6.63;0.80;;;;;;;;;;4991118;28;20725;-77
2021/10/04 01:32:48;;;;;;;1.57;0.70;;;;;;;;;;4992148;28;20249;-77
2021/10/04 01:35:16;;;;;;;1.10;0.80;;;;;;;;;;4988148;28;20237;-77
2021/10/04 01:37:45;;;;;;;1.23;0.80;;;;;;;;;;4988460;28;20276;-77
2021/10/04 01:40:13;;;;;;;2.23;1.00;;;;;;;;;;4994171;28;20536;-77
2021/10/04 01:42:40;;;;;;;4.00;0.80;;;;;;;;;;4989667;28;20642;-77
2021/10/04 01:45:08;;;;;;;2.73;0.80;;;;;;;;;;4989550;28;20715;-77
2021/10/04 01:47:36;;;;;;;2.33;1.00;;;;;;;;;;4986814;28;20293;-78
2021/10/04 01:50:03;;;;;;;1.57;0.70;;;;;;;;;;4988261;28;20218;-78
2021/10/04 01:52:30;;;;;;;1.03;0.73;;;;;;;;;;4991091;28;20292;-78
2021/10/04 01:54:59;;;;;;;1.20;0.80;;;;;;;;;;4985501;28;20664;-78
2021/10/04 01:57:26;;;;;;;2.30;0.77;;;;;;;;;;4983651;28;20197;-78
2021/10/04 01:59:53;;;;;;;3.27;0.80;;;;;;;;;;4992107;28;21095;-78
2021/10/04 02:02:21;;;;;;;4.47;0.70;;;;;;;;;;4987853;28;20213;-78
2021/10/04 02:04:48;;;;;;;1.40;0.70;;;;;;;;;;4994777;28;20205;-77
2021/10/04 02:07:15;;;;;;;1.43;0.63;;;;;;;;;;4997808;28;20236;-78
2021/10/04 02:09:42;;;;;;;1.03;0.70;;;;;;;;;;4992551;28;20288;-78
2021/10/04 02:12:11;;;;;;;2.13;0.80;;;;;;;;;;4993056;28;20208;-77
2021/10/04 02:14:38;;;;;;;2.03;0.93;;;;;;;;;;4989891;28;20743;-78
2021/10/04 02:17:05;;;;;;;2.93;0.87;;;;;;;;;;4985975;28;20209;-78
2021/10/04 02:19:33;;;;;;;1.77;0.70;;;;;;;;;;4995796;28;20264;-78
2021/10/04 02:22:00;;;;;;;3.03;0.80;;;;;;;;;;4988789;28;20243;-78
2021/10/04 02:24:28;;;;;;;1.00;0.70;;;;;;;;;;4985081;28;20210;-78
2021/10/04 02:26:55;;;;;;;0.83;0.60;;;;;;;;;;4986993;28;20240;-78
2021/10/04 02:29:24;;;;;;;0.80;0.57;;;;;;;;;;4991917;28;20229;-78
2021/10/04 02:31:51;;;;;;;2.40;0.90;;;;;;;;;;4989512;28;20205;-78
2021/10/04 02:34:18;;;;;;;2.73;0.77;;;;;;;;;;4994573;28;20252;-77
2021/10/04 02:36:45;;;;;;;1.40;0.70;;;;;;;;;;4981808;28;20232;-78
2021/10/04 02:39:13;;;;;;;2.00;0.80;;;;;;;;;;4987901;28;20300;-77
2021/10/04 02:41:40;;;;;;;2.60;0.83;;;;;;;;;;4983002;28;20795;-76
2021/10/04 02:44:07;;;;;;;1.20;0.70;;;;;;;;;;4983148;28;20282;-78
2021/10/04 02:46:36;;;;;;;3.10;0.90;;;;;;;;;;4988962;28;20273;-77
2021/10/04 02:49:03;;;;;;;0.73;0.63;;;;;;;;;;4985486;28;20308;-76
2021/10/04 02:51:30;;;;;;;0.63;0.47;;;;;;;;;;4983938;28;20244;-75
2021/10/04 02:53:57;;;;;;;1.50;0.70;;;;;;;;;;4989264;28;20194;-76
2021/10/04 02:56:25;;;;;;;2.30;0.70;;;;;;;;;;4981574;28;20234;-78
2021/10/04 02:58:52;;;;;;;1.67;0.70;;;;;;;;;;4982811;28;20233;-76
2021/10/04 03:01:19;;;;;;;2.23;0.70;;;;;;;;;;4983760;28;20336;-77
2021/10/04 03:03:48;;;;;;;2.27;0.90;;;;;;;;;;4982185;28;20233;-76
2021/10/04 03:06:15;;;;;;;3.20;0.80;;;;;;;;;;4985114;28;20336;-77
2021/10/04 03:08:42;;;;;;;3.90;0.90;;;;;;;;;;4997484;28;20225;-76
2021/10/04 03:11:09;;;;;;;1.73;0.70;;;;;;;;;;4991578;28;20716;-77
2021/10/04 03:13:37;;;;;;;1.83;0.83;;;;;;;;;;4982722;28;20241;-77
2021/10/04 03:16:04;;;;;;;3.57;0.63;;;;;;;;;;4979543;28;20202;-77
2021/10/04 03:18:31;;;;;;;0.90;0.70;;;;;;;;;;4986733;28;20345;-77
2021/10/04 03:21:00;;;;;;;4.30;0.60;;;;;;;;;;4975981;28;20783;-77
2021/10/04 03:23:27;;;;;;;2.13;0.70;;;;;;;;;;4979298;28;20244;-76
2021/10/04 03:25:54;;;;;;;4.00;0.60;;;;;;;;;;4976594;28;20698;-78
2021/10/04 03:28:22;;;;;;;6.77;0.80;;;;;;;;;;4983765;28;20237;-78
2021/10/04 03:30:49;;;;;;;1.77;0.80;;;;;;;;;;4979191;28;20706;-78
2021/10/04 03:33:17;;;;;;;2.77;0.70;;;;;;;;;;4988190;28;20241;-76
2021/10/04 03:35:44;;;;;;;1.43;0.70;;;;;;;;;;4978006;28;20726;-77
2021/10/04 03:38:12;;;;;;;2.23;0.70;;;;;;;;;;4983335;28;20237;-77
2021/10/04 03:40:40;;;;;;;1.30;0.70;;;;;;;;;;4977349;28;20380;-77
2021/10/04 03:43:07;;;;;;;1.13;0.73;;;;;;;;;;4980078;28;20240;-77
2021/10/04 03:45:34;;;;;;;1.23;0.73;;;;;;;;;;4979758;28;20634;-76
2021/10/04 03:48:01;;;;;;;1.00;0.70;;;;;;;;;;4980690;28;20233;-77
2021/10/04 03:50:28;;;;;;;3.33;0.80;;;;;;;;;;4980079;28;20246;-75
2021/10/04 03:52:56;;;;;;;1.83;0.80;;;;;;;;;;4980393;28;20214;-75
2021/10/04 03:55:24;;;;;;;0.90;0.60;;;;;;;;;;4979635;28;20206;-76
2021/10/04 03:57:51;;;;;;;2.27;0.80;;;;;;;;;;4975736;28;20304;-75
2021/10/04 04:00:20;;;;;;;2.13;0.90;;;;;;;;;;4982335;28;20268;-75
2021/10/04 04:02:48;;;;;;;1.43;0.70;;;;;;;;;;4978824;28;20244;-75
2021/10/04 04:05:15;;;;;;;3.20;0.80;;;;;;;;;;4978819;28;20680;-75
2021/10/04 04:07:43;;;;;;;3.80;0.90;;;;;;;;;;4987725;28;20244;-74
2021/10/04 04:10:10;;;;;;;1.93;0.70;;;;;;;;;;4981506;28;20659;-75
2021/10/04 04:12:40;;;;;;;4.67;1.00;;;;;;;;;;4979325;28;20308;-75
2021/10/04 04:15:08;;;;;;;3.90;1.03;;;;;;;;;;4980153;28;20283;-74
2021/10/04 04:17:35;;;;;;;2.43;0.80;;;;;;;;;;4984807;28;20740;-76
2021/10/04 04:20:02;;;;;;;5.37;0.93;;;;;;;;;;4982892;28;20315;-76
2021/10/04 04:22:29;;;;;;;1.30;0.70;;;;;;;;;;4983319;28;20252;-75
2021/10/04 04:24:57;;;;;;;0.90;0.70;;;;;;;;;;4987141;28;20292;-75
2021/10/04 04:27:24;;;;;;;2.20;1.13;;;;;;;;;;4984054;28;20296;-74
2021/10/04 04:29:53;;;;;;;1.07;0.80;;;;;;;;;;4983484;28;20278;-74
2021/10/04 04:32:20;;;;;;;4.03;0.97;;;;;;;;;;4981587;28;20679;-75
2021/10/04 04:34:48;;;;;;;1.17;0.70;;;;;;;;;;4977075;28;20297;-75
2021/10/04 04:37:15;;;;;;;1.77;0.90;;;;;;;;;;4974956;28;20300;-76
2021/10/04 04:39:42;;;;;;;3.00;0.90;;;;;;;;;;4975849;28;20260;-77
2021/10/04 04:42:09;;;;;;;4.00;0.90;;;;;;;;;;4983795;28;20481;-75
2021/10/04 04:44:36;;;;;;;3.17;0.90;;;;;;;;;;4980260;28;20744;-78
2021/10/04 04:47:05;;;;;;;1.40;0.80;;;;;;;;;;4985348;28;20324;-78
2021/10/04 04:49:58;;;;;;;2.10;0.80;;;;;;;;;;5006755;23;21225;-78
2021/10/04 04:52:28;;;;;;;4.23;0.97;;;;;;;;;;4975153;28;20201;-77
2021/10/04 04:54:55;;;;;;;2.20;1.03;;;;;;;;;;4979112;28;20240;-76
2021/10/04 04:57:23;;;;;;;1.73;1.00;;;;;;;;;;4978966;28;20200;-76
2021/10/04 04:59:51;;;;;;;4.00;0.80;;;;;;;;;;4977059;28;20728;-77
2021/10/04 05:02:20;;;;;;;3.57;1.03;;;;;;;;;;4958125;28;20221;-76
2021/10/04 05:04:47;;;;;;;1.70;1.10;;;;;;;;;;4972864;28;20210;-77
2021/10/04 05:07:15;;;;;;;2.53;1.03;;;;;;;;;;4976027;28;20206;-76
2021/10/04 05:09:42;;;;;;;2.87;1.00;;;;;;;;;;4971088;28;20225;-76
2021/10/04 05:12:09;;;;;;;2.87;0.90;;;;;;;;;;4969348;28;20667;-77
2021/10/04 05:14:36;;;;;;;1.67;1.00;;;;;;;;;;4969415;28;20443;-74
2021/10/04 05:17:04;;;;;;;1.73;1.30;;;;;;;;;;4967932;28;20236;-76
2021/10/04 05:19:32;;;;;;;2.00;1.10;;;;;;;;;;4972920;28;20307;-76
2021/10/04 05:22:00;;;;;;;2.47;1.10;;;;;;;;;;4977763;28;20316;-76
2021/10/04 05:24:27;;;;;;;2.50;1.00;;;;;;;;;;4984720;28;20216;-76
2021/10/04 05:26:56;;;;;;;1.70;1.00;;;;;;;;;;4983324;28;20614;-76
2021/10/04 05:29:23;;;;;;;4.13;1.20;;;;;;;;;;4979413;28;20304;-76
2021/10/04 05:31:50;;;;;;;3.20;0.97;;;;;;;;;;4979962;28;20680;-76
2021/10/04 05:34:18;;;;;;;2.27;1.03;;;;;;;;;;4972201;28;20246;-76
2021/10/04 05:36:46;;;;;;;2.53;0.90;;;;;;;;;;4974907;28;20287;-76
2021/10/04 05:39:13;;;;;;;1.47;0.90;;;;;;;;;;4975424;28;20674;-76
2021/10/04 05:41:41;;;;;;;3.13;0.90;;;;;;;;;;4969975;28;20358;-76
2021/10/04 05:44:08;;;;;;;2.67;1.13;;;;;;;;;;4977390;28;20300;-76
2021/10/04 05:46:35;;;;;;;8.57;2.50;;;;;;;;;;4980082;28;20220;-76
2021/10/04 05:49:03;;;;;;;6.87;3.80;;;;;;;;;;4977731;28;20302;-76
2021/10/04 05:51:30;;;;;;;4.30;2.50;;;;;;;;;;4977114;28;20220;-76
2021/10/04 05:53:58;;;;;;;4.37;2.30;;;;;;;;;;4983754;28;20279;-76
2021/10/04 05:56:26;;;;;;;2.63;1.30;;;;;;;;;;4983719;28;20335;-75
2021/10/04 05:58:53;;;;;;;6.57;1.10;;;;;;;;;;4981361;28;20490;-76
2021/10/04 06:01:20;;;;;;;3.53;1.10;;;;;;;;;;4979714;28;20698;-75
2021/10/04 06:03:48;;;;;;;6.33;0.90;;;;;;;;;;4982439;28;20242;-76
2021/10/04 06:06:15;;;;;;;2.13;1.00;;;;;;;;;;4984279;28;20313;-76
2021/10/04 06:08:42;;;;;;;1.43;1.20;;;;;;;;;;4985066;28;20336;-75
2021/10/04 06:11:10;;;;;;;1.37;0.73;;;;;;;;;;4981186;28;20324;-76
2021/10/04 06:13:38;;;;;;;2.87;1.10;;;;;;;;;;4983733;28;20300;-76
2021/10/04 06:16:05;;;;;;;1.93;0.93;;;;;;;;;;4986283;28;20295;-76
2021/10/04 06:18:32;;;;;;;4.80;1.20;;;;;;;;;;4985466;28;20223;-76
2021/10/04 06:21:00;;;;;;;4.30;1.33;;;;;;;;;;4982969;28;20748;-76
2021/10/04 06:23:27;;;;;;;3.50;1.20;;;;;;;;;;4984425;28;20252;-76
2021/10/04 06:25:54;;;;;;;2.20;1.20;;;;;;;;;;4984600;28;20291;-76
2021/10/04 06:28:22;;;;;;;2.10;1.03;;;;;;;;;;4978429;28;20240;-76
2021/10/04 06:30:50;;;;;;;6.17;1.33;;;;;;;;;;4983565;28;20260;-76
2021/10/04 06:33:17;;;;;;;2.00;1.40;;;;;;;;;;4982923;28;20780;-77
2021/10/04 06:35:46;;;;;;;2.73;1.47;;;;;;;;;;4987919;28;20297;-77
2021/10/04 06:38:13;;;;;;;3.97;1.20;;;;;;;;;;4990624;28;20694;-77
2021/10/04 06:40:40;;;;;;;3.70;1.10;;;;;;;;;;4984631;28;20254;-76
2021/10/04 06:43:08;;;;;;;10.33;2.10;;;;;;;;;;4982434;28;20323;-79
2021/10/04 06:45:36;;;;;;;16.20;1.73;;;;;;;;;;4982106;28;20500;-76
2021/10/04 06:48:04;;;;;;;4.80;1.53;;;;;;;;;;4982770;28;20295;-76
2021/10/04 06:50:31;;;;;;;2.77;1.60;;;;;;;;;;4979126;28;20319;-76
2021/10/04 06:52:58;;;;;;;4.07;1.37;;;;;;;;;;4983607;28;20290;-80
2021/10/04 06:55:25;;;;;;;6.13;1.80;;;;;;;;;;4980604;28;20287;-77
2021/10/04 06:57:53;;;;;;;4.00;1.80;;;;;;;;;;4976366;28;20215;-77
2021/10/04 07:00:21;;;;;;;2.93;1.90;;;;;;;;;;4980780;28;20227;-76
2021/10/04 07:02:50;;;;;;;2.20;1.57;;;;;;;;;;4978739;28;20288;-76
2021/10/04 07:05:18;;;;;;;6.57;1.60;;;;;;;;;;4987806;28;20295;-76
2021/10/04 07:07:45;;;;;;;3.60;1.70;;;;;;;;;;4982108;28;20197;-76
2021/10/04 07:10:13;;;;;;;3.53;1.90;;;;;;;;;;4980704;28;20798;-76
2021/10/04 07:12:40;;;;;;;7.40;2.13;;;;;;;;;;4977365;28;20289;-76
2021/10/04 07:15:08;;;;;;;2.50;1.70;;;;;;;;;;4981569;28;20202;-76
2021/10/04 07:17:35;;;;;;;9.07;2.10;;;;;;;;;;4982009;28;20210;-76
2021/10/04 07:20:04;;;;;;;10.97;1.63;;;;;;;;;;4975182;28;20253;-76
2021/10/04 07:22:31;;;;;;;6.00;1.90;;;;;;;;;;4980597;28;20216;-76
2021/10/04 07:24:58;;;;;;;10.70;1.60;;;;;;;;;;4975873;28;20293;-76
2021/10/04 07:27:26;;;;;;;5.13;1.67;;;;;;;;;;4987276;28;20673;-76
2021/10/04 07:29:53;;;;;;;4.63;1.77;;;;;;;;;;4984623;28;20311;-76
2021/10/04 07:32:20;;;;;;;6.47;1.90;;;;;;;;;;4980529;28;20235;-76
2021/10/04 07:34:47;;;;;;;3.50;1.63;;;;;;;;;;4974432;28;20301;-74
2021/10/04 07:37:16;;;;;;;3.90;1.47;;;;;;;;;;4973846;28;20318;-76
2021/10/04 07:39:43;;;;;;;6.43;1.90;;;;;;;;;;4972752;28;20327;-76
2021/10/04 07:42:11;;;;;;;10.00;1.93;;;;;;;;;;4976747;28;20323;-76
2021/10/04 07:44:38;;;;;;;14.37;1.70;;;;;;;;;;4983281;28;20287;-76
2021/10/04 07:47:05;;;;;;;4.63;2.10;;;;;;;;;;4980921;28;20292;-77
2021/10/04 07:52:06;;;;;;;4.17;1.50;;;;;;;;;;4955442;28;20269;-81
2021/10/04 07:54:35;;;;;;;4.00;1.77;;;;;;;;;;4963835;28;20308;-76
2021/10/04 07:57:02;;;;;;;5.07;1.77;;;;;;;;;;4961508;28;20255;-76
2021/10/04 07:59:30;;;;;;;4.93;1.90;;;;;;;;;;4961642;28;20264;-76
2021/10/04 08:01:57;;;;;;;4.73;1.73;;;;;;;;;;4962621;28;20691;-76
2021/10/04 08:04:26;;;;;;;4.60;1.67;;;;;;;;;;4967519;28;20289;-76
2021/10/04 08:06:53;;;;;;;4.80;1.43;;;;;;;;;;4964674;28;20295;-76
2021/10/04 08:09:20;;;;;;;3.13;2.00;;;;;;;;;;4966992;28;20275;-76
2021/10/04 08:11:49;;;;;;;6.90;1.50;;;;;;;;;;4965030;28;20260;-76
2021/10/04 08:14:16;;;;;;;4.70;1.33;;;;;;;;;;4965072;28;20263;-76
2021/10/04 08:16:43;;;;;;;3.87;1.57;;;;;;;;;;4964003;28;20291;-76
2021/10/04 08:19:11;;;;;;;10.93;1.93;;;;;;;;;;4968847;28;20269;-77
2021/10/04 08:21:38;;;;;;;4.83;1.57;;;;;;;;;;4968249;28;20308;-78
2021/10/04 08:24:05;;;;;;;4.70;1.43;;;;;;;;;;4968923;28;20625;-76
2021/10/04 08:26:33;;;;;;;2.63;1.70;;;;;;;;;;4960191;28;20320;-77
2021/10/04 08:29:01;;;;;;;4.43;2.00;;;;;;;;;;4959001;28;20237;-77
2021/10/04 08:31:32;;;;;;;4.63;1.73;;;;;;;;;;4968976;28;20241;-77
2021/10/04 08:34:01;;;;;;;3.93;1.57;;;;;;;;;;4975597;28;20205;-77
2021/10/04 08:36:28;;;;;;;3.93;1.80;;;;;;;;;;4965164;28;20220;-77
2021/10/04 08:38:56;;;;;;;4.70;2.00;;;;;;;;;;4964138;28;20288;-76
2021/10/04 08:41:23;;;;;;;3.87;1.90;;;;;;;;;;4962682;28;20322;-77
2021/10/04 08:43:52;;;;;;;4.30;1.53;;;;;;;;;;4954982;28;20210;-77
2021/10/04 08:46:21;;;;;;;5.23;2.10;;;;;;;;;;4955418;28;20313;-77
2021/10/04 08:48:52;;;;;;;7.70;2.70;;;;;;;;;;4959402;28;20257;-77
2021/10/04 08:51:19;;;;;;;4.97;2.53;;;;;;;;;;4956422;28;20309;-77
2021/10/04 08:53:46;;;;;;;6.77;2.37;;;;;;;;;;4957503;28;20238;-77
2021/10/04 08:56:14;;;;;;;5.43;2.00;;;;;;;;;;4968277;28;20215;-83
2021/10/04 08:58:41;;;;;;;3.10;2.10;;;;;;;;;;4965083;28;20214;-76
2021/10/04 09:01:09;;;;;;;3.73;2.30;;;;;;;;;;4958793;28;20314;-75
2021/10/04 09:03:45;;;;;;;6.83;2.03;;;;;;;;;;4966556;28;20229;-77
2021/10/04 09:06:24;;;;;;;3.63;1.50;;;;;;;;;;4963632;28;20215;-77
2021/10/04 09:08:52;;;;;;;5.77;1.97;;;;;;;;;;4962253;28;20284;-77
2021/10/04 09:11:28;;;;;;;2.80;1.30;;;;;;;;;;4965430;28;20316;-77
2021/10/04 09:13:55;;;;;;;3.57;2.00;;;;;;;;;;4964812;28;20211;-77
2021/10/04 09:16:22;;;;;;;2.80;1.47;;;;;;;;;;4969575;28;20707;-78
2021/10/04 09:18:54;;;;;;;6.50;1.33;;;;;;;;;;4964166;28;20213;-77
2021/10/04 09:21:21;;;;;;;1.83;1.43;;;;;;;;;;4961794;28;20260;-77
2021/10/04 09:24:16;;;;;;;3.33;1.73;;;;;;;;;;4965475;28;20312;-78
2021/10/04 09:26:43;;;;;;;1.63;1.00;;;;;;;;;;4965607;28;20248;-77
2021/10/04 09:29:11;;;;;;;3.00;1.10;;;;;;;;;;4962876;28;20210;-77
2021/10/04 09:31:40;;;;;;;3.20;1.20;;;;;;;;;;4962366;28;20206;-76
2021/10/04 09:34:10;;;;;;;4.70;1.50;;;;;;;;;;4965197;28;20210;-76
2021/10/04 09:36:38;;;;;;;5.23;1.10;;;;;;;;;;4966953;28;20210;-76
2021/10/04 09:39:15;;;;;;;2.10;0.90;;;;;;;;;;4960956;28;20298;-76
2021/10/04 09:42:00;;;;;;;1.50;0.80;;;;;;;;;;4964670;28;20222;-76
2021/10/04 09:44:28;;;;;;;1.33;0.70;;;;;;;;;;4956436;28;20237;-77
2021/10/04 09:47:08;;;;;;;1.70;0.70;;;;;;;;;;4954439;28;20292;-77
2021/10/04 09:49:48;;;;;;;5.37;0.80;;;;;;;;;;5002109;23;20331;-77
2021/10/04 09:52:15;;;;;;;4.10;0.90;;;;;;;;;;5004466;28;20689;-77
2021/10/04 09:54:44;;;;;;;2.23;0.90;;;;;;;;;;5003908;28;20208;-77
2021/10/04 09:57:18;;;;;;;2.73;0.70;;;;;;;;;;5003431;28;20697;-78
2021/10/04 09:59:46;;;;;;;1.90;0.90;;;;;;;;;;5003868;28;20229;-78
2021/10/04 10:02:13;;;;;;;2.57;0.80;;;;;;;;;;5004063;28;20228;-78
2021/10/04 10:04:41;;;;;;;2.93;1.10;;;;;;;;;;5003028;28;20290;-78
2021/10/04 10:07:09;;;;;;;5.07;1.00;;;;;;;;;;5006884;28;20208;-78
2021/10/04 10:09:37;;;;;;;4.87;1.37;;;;;;;;;;5004883;28;20645;-78
2021/10/04 10:12:05;;;;;;;1.50;0.70;;;;;;;;;;5002410;28;20244;-78
2021/10/04 10:14:39;;;;;;;2.10;0.60;;;;;;;;;;5004233;28;20228;-78
2021/10/04 10:17:07;;;;;;;4.23;0.83;;;;;;;;;;5003825;28;20283;-78
2021/10/04 10:19:38;;;;;;;2.47;0.83;;;;;;;;;;5004193;28;20311;-78
2021/10/04 10:22:21;;;;;;;3.33;1.03;;;;;;;;;;5004176;28;20725;-78
2021/10/04 10:24:50;;;;;;;1.17;0.60;;;;;;;;;;5003775;28;20296;-78
2021/10/04 10:27:17;;;;;;;2.40;0.60;;;;;;;;;;5006691;28;20251;-78
2021/10/04 10:29:44;;;;;;;1.20;0.70;;;;;;;;;;5001064;28;20291;-78
2021/10/04 10:32:14;;;;;;;1.50;0.67;;;;;;;;;;5006049;28;20255;-78
2021/10/04 10:34:49;;;;;;;1.53;1.10;;;;;;;;;;5000443;28;20656;-78
2021/10/04 10:37:18;;;;;;;1.87;1.10;;;;;;;;;;5002817;28;20572;-78
2021/10/04 10:39:47;;;;;;;1.33;0.50;;;;;;;;;;4999087;28;20233;-78
2021/10/04 10:42:15;;;;;;;1.53;0.57;;;;;;;;;;5000732;28;20209;-78
2021/10/04 10:47:38;;;;;;;2.93;0.63;;;;;;;;;;4960211;28;20637;-78
2021/10/04 10:50:08;;;;;;;3.83;0.90;;;;;;;;;;4961318;28;20764;-77
2021/10/04 10:52:38;;;;;;;2.93;1.70;;;;;;;;;;4962862;28;20594;-79
2021/10/04 10:55:26;;;;;;;3.20;1.10;;;;;;;;;;4960575;28;20390;-77
2021/10/04 10:58:00;;;;;;;1.90;0.60;;;;;;;;;;4959237;28;20242;-77
2021/10/04 11:00:28;;;;;;;1.03;0.60;;;;;;;;;;4959565;28;20726;-77
2021/10/04 11:02:57;;;;;;;2.03;0.60;;;;;;;;;;4957924;28;20787;-77
2021/10/04 11:05:42;;;;;;;1.27;0.63;;;;;;;;;;4956126;28;20528;-78
2021/10/04 11:08:12;;;;;;;4.60;1.77;;;;;;;;;;4960633;28;20297;-77
2021/10/04 11:11:02;;;;;;;2.63;1.17;;;;;;;;;;4959988;28;20734;-77
2021/10/04 11:13:30;;;;;;;8.67;0.83;;;;;;;;;;4960019;28;20285;-77
2021/10/04 11:15:58;;;;;;;5.53;0.87;;;;;;;;;;4961255;28;20244;-77
2021/10/04 11:18:35;;;;;;;1.27;0.60;;;;;;;;;;4959388;28;20213;-76
2021/10/04 11:21:03;;;;;;;5.60;1.30;;;;;;;;;;4962778;28;20308;-76
2021/10/04 11:26:14;;;;;;;3.67;1.60;;;;;;;;;;4946766;28;20218;-77
2021/10/04 11:28:42;;;;;;;1.63;0.50;;;;;;;;;;4946085;28;20811;-77
2021/10/04 11:31:11;;;;;;;0.90;0.40;;;;;;;;;;4953479;28;20671;-77
2021/10/04 11:33:40;;;;;;;4.80;0.93;;;;;;;;;;4950796;28;20229;-76
2021/10/04 11:36:09;;;;;;;1.07;0.60;;;;;;;;;;4949530;28;20214;-76
2021/10/04 11:38:39;;;;;;;2.33;0.70;;;;;;;;;;4954998;28;20349;-77
2021/10/04 11:41:06;;;;;;;3.27;0.77;;;;;;;;;;4953070;28;20309;-76
2021/10/04 11:43:36;;;;;;;3.47;0.60;;;;;;;;;;4951310;28;20221;-76
2021/10/04 11:46:15;;;;;;;1.53;0.60;;;;;;;;;;4945335;28;20216;-77
2021/10/04 11:48:43;;;;;;;2.33;0.83;;;;;;;;;;4952019;28;20197;-76
2021/10/04 11:51:13;;;;;;;0.70;0.60;;;;;;;;;;4949271;28;20824;-76
2021/10/04 11:53:43;;;;;;;1.27;0.60;;;;;;;;;;4950650;28;20246;-76
2021/10/04 11:56:12;;;;;;;1.67;0.67;;;;;;;;;;4947235;28;20296;-76
2021/10/04 11:58:48;;;;;;;1.40;0.70;;;;;;;;;;4949185;28;20205;-77
2021/10/04 12:01:27;;;;;;;3.90;0.70;;;;;;;;;;4952767;28;20243;-77
2021/10/04 12:03:59;;;;;;;2.60;0.70;;;;;;;;;;4948770;28;20569;-76
2021/10/04 12:06:27;;;;;;;0.97;0.50;;;;;;;;;;4943212;28;20233;-76
2021/10/04 12:08:57;;;;;;;2.70;0.80;;;;;;;;;;4947234;28;20292;-76
2021/10/04 12:11:24;;;;;;;1.67;0.70;;;;;;;;;;4949734;28;20213;-76
2021/10/04 12:13:52;;;;;;;2.13;0.70;;;;;;;;;;4951746;28;20193;-75
2021/10/04 12:16:20;;;;;;;0.87;0.73;;;;;;;;;;4963100;28;20801;-75
2021/10/04 12:18:48;;;;;;;1.40;0.77;;;;;;;;;;4964136;28;20238;-76
2021/10/04 12:21:17;;;;;;;1.20;0.60;;;;;;;;;;4963266;28;20225;-77
2021/10/04 12:23:44;;;;;;;1.60;0.80;;;;;;;;;;4967738;28;20313;-77
2021/10/04 12:26:14;;;;;;;4.00;0.80;;;;;;;;;;4969769;28;20690;-77
2021/10/04 12:28:45;;;;;;;4.87;1.07;;;;;;;;;;4966194;28;20304;-77
2021/10/04 12:31:29;;;;;;;4.73;1.43;;;;;;;;;;4967556;28;20230;-76
2021/10/04 12:33:57;;;;;;;4.83;0.97;;;;;;;;;;4964980;28;20245;-77
2021/10/04 12:36:24;;;;;;;2.47;1.00;;;;;;;;;;4962303;28;20644;-76
2021/10/04 12:38:52;;;;;;;5.00;2.80;;;;;;;;;;4965801;28;20658;-76
2021/10/04 12:41:21;;;;;;;4.50;1.87;;;;;;;;;;4966929;28;20312;-77
2021/10/04 12:43:48;;;;;;;3.53;1.20;;;;;;;;;;4957894;28;20217;-77
2021/10/04 12:46:20;;;;;;;4.57;1.03;;;;;;;;;;4965153;28;20300;-77
2021/10/04 12:48:49;;;;;;;4.20;1.40;;;;;;;;;;4971153;28;20216;-77
2021/10/04 12:51:19;;;;;;;1.93;1.67;;;;;;;;;;4966263;28;20238;-76
2021/10/04 12:53:47;;;;;;;3.73;1.90;;;;;;;;;;4972866;28;20209;-76
2021/10/04 12:56:15;;;;;;;10.47;4.10;;;;;;;;;;4961648;28;20205;-77
2021/10/04 12:58:43;;;;;;;4.63;1.93;;;;;;;;;;4969127;28;20208;-77
2021/10/04 13:01:13;;;;;;;1.83;1.50;;;;;;;;;;4967975;28;20284;-77
2021/10/04 13:03:52;;;;;;;4.10;1.30;;;;;;;;;;4965816;28;20315;-76
2021/10/04 13:06:26;;;;;;;3.30;1.47;;;;;;;;;;4962926;28;20295;-76
2021/10/04 13:08:53;;;;;;;2.37;1.27;;;;;;;;;;4947683;28;20201;-76
2021/10/04 13:11:21;;;;;;;2.03;1.13;;;;;;;;;;4954160;28;20740;-76
2021/10/04 13:13:50;;;;;;;2.30;1.10;;;;;;;;;;4958802;28;20700;-76
2021/10/04 13:16:17;;;;;;;3.10;1.30;;;;;;;;;;4960342;28;20284;-78
2021/10/04 13:18:45;;;;;;;3.13;1.10;;;;;;;;;;4961304;28;20289;-77
2021/10/04 13:21:12;;;;;;;2.50;1.30;;;;;;;;;;4961711;28;20336;-77
2021/10/04 13:23:39;;;;;;;4.97;2.20;;;;;;;;;;4957498;28;20227;-77
2021/10/04 13:26:08;;;;;;;3.00;1.40;;;;;;;;;;4958555;28;20207;-77
2021/10/04 13:28:36;;;;;;;3.07;1.20;;;;;;;;;;4964330;28;20312;-78
2021/10/04 13:31:05;;;;;;;2.50;1.20;;;;;;;;;;4972260;28;20232;-77
2021/10/04 13:36:08;;;;;;;4.57;1.07;;;;;;;;;;3164052;23;20623;-77
2021/10/04 13:38:35;;;;;;;4.17;1.20;;;;;;;;;;5002239;28;20236;-75
2021/10/04 13:41:03;;;;;;;3.00;1.30;;;;;;;;;;4992842;28;20641;-78
2021/10/04 13:43:30;;;;;;;1.90;1.40;;;;;;;;;;4998380;28;20248;-78
2021/10/04 13:46:01;;;;;;;2.17;1.10;;;;;;;;;;4995988;28;20209;-77
2021/10/04 13:48:29;;;;;;;3.43;1.30;;;;;;;;;;5012660;28;20231;-76
2021/10/04 13:50:57;;;;;;;2.90;1.20;;;;;;;;;;5004678;28;20347;-77
2021/10/04 13:53:25;;;;;;;4.40;1.57;;;;;;;;;;5012762;28;20223;-78
2021/10/04 13:55:52;;;;;;;5.40;1.50;;;;;;;;;;5012498;28;20247;-78
2021/10/04 13:58:19;;;;;;;3.40;1.27;;;;;;;;;;4999672;28;20238;-77
2021/10/04 14:00:46;;;;;;;2.47;1.30;;;;;;;;;;5002951;28;20759;-77
2021/10/04 14:03:14;;;;;;;2.10;1.30;;;;;;;;;;4997918;28;20643;-77
2021/10/04 14:05:42;;;;;;;3.67;1.47;;;;;;;;;;5006795;28;20239;-77
2021/10/04 14:08:09;;;;;;;2.73;1.40;;;;;;;;;;5004169;28;20659;-76
2021/10/04 14:10:37;;;;;;;2.10;1.37;;;;;;;;;;5004087;28;20328;-76
2021/10/04 14:13:04;;;;;;;1.20;1.03;;;;;;;;;;5004354;28;20390;-76
2021/10/04 14:15:31;;;;;;;3.93;1.60;;;;;;;;;;5001707;28;20287;-76
2021/10/04 14:17:58;;;;;;;1.90;1.30;;;;;;;;;;5006243;28;20233;-76
2021/10/04 14:20:26;;;;;;;4.30;1.30;;;;;;;;;;5001097;28;20231;-76
2021/10/04 14:22:54;;;;;;;3.30;1.60;;;;;;;;;;5002563;28;20291;-75
2021/10/04 14:25:22;;;;;;;3.70;1.70;;;;;;;;;;4999770;28;20749;-75
2021/10/04 14:27:50;;;;;;;2.93;1.30;;;;;;;;;;4998580;28;20207;-75
2021/10/04 14:30:20;;;;;;;2.97;1.47;;;;;;;;;;5006014;28;20729;-75
2021/10/04 14:32:48;;;;;;;2.87;1.30;;;;;;;;;;4998468;28;20231;-75
2021/10/04 14:35:18;;;;;;;3.77;1.93;;;;;;;;;;5000453;28;20700;-75
2021/10/04 14:37:46;;;;;;;3.87;1.50;;;;;;;;;;4999129;28;20343;-75
2021/10/04 14:40:15;;;;;;;3.83;1.20;;;;;;;;;;5005474;28;20274;-75
2021/10/04 14:42:42;;;;;;;2.97;1.37;;;;;;;;;;4999393;28;20591;-75
2021/10/04 14:45:10;;;;;;;2.63;1.17;;;;;;;;;;5006969;28;20784;-75
2021/10/04 14:47:37;;;;;;;4.07;1.20;;;;;;;;;;5006439;28;20235;-75
2021/10/04 14:50:06;;;;;;;2.33;1.30;;;;;;;;;;4997075;28;20258;-75
2021/10/04 14:52:35;;;;;;;1.73;1.20;;;;;;;;;;5002415;28;20298;-75
2021/10/04 14:55:02;;;;;;;4.10;1.30;;;;;;;;;;5006590;28;20266;-75
2021/10/04 14:57:30;;;;;;;2.33;1.30;;;;;;;;;;5006540;28;20827;-75
2021/10/04 14:59:58;;;;;;;1.10;0.93;;;;;;;;;;5002557;28;20307;-75
2021/10/04 15:02:25;;;;;;;3.10;1.03;;;;;;;;;;4999201;28;20299;-75